Time;durP1;ratioP1;P1;durP2;ratioP2;P2;SDS_P1;SDS_P2;PMS_P1;PMS_P2;Temp;Humidity;BMP_temperature;BMP_pressure;BME280_temperature;BME280_humidity;BME280_pressure;Samples;Min_cycle;Max_cycle;Signal;HPM_P1;HPM_P2
2022/03/24 00:00:39;;;;;;;29.45;20.60;;;;;;;5.27;64.93;100885.38;4953406;28;20114;-66
2022/03/24 00:03:05;;;;;;;37.25;20.55;;;;;;;5.26;64.67;100880.16;4953549;28;20063;-66
2022/03/24 00:05:31;;;;;;;34.50;21.70;;;;;;;5.26;64.31;100880.16;4953997;28;20036;-66
2022/03/24 00:07:56;;;;;;;38.22;22.27;;;;;;;5.25;63.81;100881.91;4954183;28;20053;-65
2022/03/24 00:10:23;;;;;;;37.17;20.48;;;;;;;5.23;63.67;100888.03;4953455;28;20537;-65
2022/03/24 00:12:50;;;;;;;26.38;18.67;;;;;;;5.23;63.37;100875.81;4953292;28;20042;-67
2022/03/24 00:15:15;;;;;;;36.78;20.42;;;;;;;5.21;63.84;100876.72;4954020;28;20027;-65
2022/03/24 00:17:40;;;;;;;34.40;21.77;;;;;;;5.16;64.63;100874.16;4953414;28;20399;-66
2022/03/24 00:20:06;;;;;;;32.42;19.80;;;;;;;5.15;64.62;100877.66;4953333;28;20174;-66
2022/03/24 00:22:32;;;;;;;27.27;18.75;;;;;;;5.16;64.26;100884.59;4951521;29;20498;-65
2022/03/24 00:24:57;;;;;;;25.73;18.52;;;;;;;5.18;64.27;100874.13;4953603;29;20114;-65
2022/03/24 00:27:23;;;;;;;31.85;19.58;;;;;;;5.15;64.49;100867.19;4953689;29;20035;-66
2022/03/24 00:29:48;;;;;;;31.00;20.30;;;;;;;5.14;64.73;100870.69;4954367;29;20035;-65
2022/03/24 00:32:14;;;;;;;31.45;21.58;;;;;;;5.07;64.42;100866.38;4953675;29;20633;-66
2022/03/24 00:34:40;;;;;;;37.30;22.15;;;;;;;5.07;64.72;100866.38;4953436;29;20031;-65
2022/03/24 00:37:05;;;;;;;34.10;20.92;;;;;;;5.07;64.51;100869.00;4953569;29;20031;-66
2022/03/24 00:39:33;;;;;;;30.58;18.45;;;;;;;5.05;63.75;100861.19;4953344;29;20031;-66
2022/03/24 00:42:00;;;;;;;30.80;18.40;;;;;;;5.05;63.75;100863.81;4952542;29;20050;-65
2022/03/24 00:44:26;;;;;;;28.92;19.63;;;;;;;5.03;63.81;100862.09;4953399;29;20043;-65
2022/03/24 00:46:52;;;;;;;36.95;19.80;;;;;;;5.00;64.01;100862.97;4953372;29;20028;-66
2022/03/24 00:49:17;;;;;;;32.92;21.20;;;;;;;4.95;63.53;100854.31;4953186;29;20046;-66
2022/03/24 00:51:44;;;;;;;36.47;22.48;;;;;;;4.89;64.21;100863.06;4953549;29;20039;-65
2022/03/24 00:54:10;;;;;;;34.38;20.70;;;;;;;4.82;64.94;100855.28;4953852;29;20094;-66
2022/03/24 00:56:35;;;;;;;36.10;21.35;;;;;;;4.76;65.05;100858.81;4953676;28;20043;-65
2022/03/24 00:59:01;;;;;;;40.72;20.73;;;;;;;4.72;64.72;100857.97;4953786;28;20568;-67
2022/03/24 01:01:26;;;;;;;40.00;20.63;;;;;;;4.69;65.47;100857.13;4952730;28;20102;-66
2022/03/24 01:03:51;;;;;;;35.92;19.77;;;;;;;4.63;66.12;100857.19;4952490;28;20035;-66
2022/03/24 01:06:18;;;;;;;38.35;22.00;;;;;;;4.57;65.98;100850.25;4953478;29;20043;-65
2022/03/24 01:08:44;;;;;;;38.88;21.48;;;;;;;4.54;65.99;100852.03;4953225;29;20035;-65
2022/03/24 01:11:10;;;;;;;41.42;22.98;;;;;;;4.48;66.22;100853.81;4952267;29;20510;-64
2022/03/24 01:13:36;;;;;;;37.03;20.92;;;;;;;4.43;66.39;100850.38;4952771;29;20043;-65
2022/03/24 01:16:07;;;;;;;33.35;19.42;;;;;;;4.41;66.21;100846.91;4952480;29;20496;-65
2022/03/24 01:18:34;;;;;;;34.78;22.15;;;;;;;4.43;66.22;100854.69;4952443;29;20407;-67
2022/03/24 01:21:02;;;;;;;34.13;21.73;;;;;;;4.44;66.23;100854.72;4951598;29;20122;-65
2022/03/24 01:23:28;;;;;;;33.22;20.88;;;;;;;4.43;66.48;100850.38;4952730;29;20094;-67
2022/03/24 01:25:54;;;;;;;42.30;20.95;;;;;;;4.44;66.19;100841.66;4952335;29;20094;-66
2022/03/24 01:28:20;;;;;;;32.92;21.65;;;;;;;4.44;65.94;100841.66;4952488;29;20126;-66
2022/03/24 01:30:46;;;;;;;30.60;19.33;;;;;;;4.41;66.41;100846.91;4952144;29;20117;-66
2022/03/24 01:33:12;;;;;;;33.50;19.92;;;;;;;4.40;66.34;100852.97;4951632;28;20517;-64
2022/03/24 01:35:37;;;;;;;31.27;21.10;;;;;;;4.39;66.57;100848.66;4952594;29;20479;-64
2022/03/24 01:38:03;;;;;;;33.22;22.45;;;;;;;4.37;66.81;100841.72;4952642;29;20042;-65
2022/03/24 01:40:28;;;;;;;30.10;19.27;;;;;;;4.34;66.42;100836.50;4952364;29;20059;-63
2022/03/24 01:42:55;;;;;;;41.13;23.38;;;;;;;4.30;66.59;100839.13;4952063;29;20519;-65
2022/03/24 01:45:20;;;;;;;31.42;20.83;;;;;;;4.27;66.67;100836.53;4952020;29;20920;-64
2022/03/24 01:47:46;;;;;;;34.10;20.30;;;;;;;4.26;67.18;100836.56;4952745;29;20035;-66
2022/03/24 01:50:11;;;;;;;31.15;20.05;;;;;;;4.22;67.33;100830.47;4953164;29;20047;-67
2022/03/24 01:52:37;;;;;;;32.67;19.75;;;;;;;4.16;67.32;100830.53;4954247;29;22163;-65
2022/03/24 01:55:05;;;;;;;34.75;22.00;;;;;;;4.18;66.90;100833.97;4957189;29;20062;-66
2022/03/24 01:57:31;;;;;;;36.80;20.52;;;;;;;4.18;67.14;100831.38;4956912;29;20035;-66
2022/03/24 01:59:58;;;;;;;34.25;21.50;;;;;;;4.16;67.23;100825.31;4954166;28;20042;-66
2022/03/24 02:02:24;;;;;;;33.13;21.83;;;;;;;4.15;66.55;100827.94;4938632;28;20039;-66
2022/03/24 02:04:50;;;;;;;31.05;20.58;;;;;;;4.19;66.15;100821.81;4951922;28;20098;-64
2022/03/24 02:07:15;;;;;;;36.13;22.98;;;;;;;4.17;66.43;100827.03;4951907;28;20038;-66
2022/03/24 02:09:41;;;;;;;33.35;21.27;;;;;;;4.16;66.26;100816.59;4951714;28;20034;-66
2022/03/24 02:12:09;;;;;;;35.40;22.08;;;;;;;4.16;66.67;100820.09;4951376;28;20031;-66
2022/03/24 02:14:35;;;;;;;45.42;21.92;;;;;;;4.14;66.60;100823.59;4943059;28;20035;-65
2022/03/24 02:17:01;;;;;;;30.63;20.63;;;;;;;4.09;67.02;100824.47;4951372;28;20503;-64
2022/03/24 02:19:28;;;;;;;40.65;24.33;;;;;;;4.07;67.00;100821.00;4951533;28;20043;-65
2022/03/24 02:21:55;;;;;;;41.33;23.10;;;;;;;4.08;66.93;100816.66;4950806;28;20163;-65
2022/03/24 02:24:23;;;;;;;38.05;22.50;;;;;;;4.04;67.33;100813.22;4951310;28;20035;-65
2022/03/24 02:26:50;;;;;;;38.08;23.10;;;;;;;3.98;67.57;100804.53;4950853;29;20618;-66
2022/03/24 02:29:17;;;;;;;30.92;21.67;;;;;;;3.94;67.35;100811.53;4950781;29;20506;-67
2022/03/24 02:31:47;;;;;;;39.60;22.95;;;;;;;3.90;67.79;100812.41;4953009;28;20373;-66
2022/03/24 02:37:02;;;;;;;40.20;24.15;;;;;;;3.82;68.07;100814.22;4952986;28;20042;-66
2022/03/24 02:39:28;;;;;;;40.20;24.83;;;;;;;3.78;68.36;100812.47;4952513;28;20135;-65
2022/03/24 02:41:56;;;;;;;34.42;21.92;;;;;;;3.75;68.32;100804.69;4950898;28;20122;-66
2022/03/24 02:44:23;;;;;;;35.05;21.65;;;;;;;3.73;68.23;100809.03;4952075;28;20035;-65
2022/03/24 02:46:50;;;;;;;35.80;23.48;;;;;;;3.76;68.14;100811.63;4955208;28;20043;-66
2022/03/24 02:49:22;;;;;;;41.78;23.15;;;;;;;3.77;68.39;100816.84;4955275;28;20031;-65
2022/03/24 02:51:49;;;;;;;38.15;21.17;;;;;;;3.81;67.84;100820.28;4954601;28;20467;-66
2022/03/24 02:54:15;;;;;;;38.00;21.10;;;;;;;3.82;67.85;100812.47;4943011;28;20480;-67
2022/03/24 02:56:42;;;;;;;36.67;24.50;;;;;;;3.80;68.18;100814.19;4955337;28;20042;-66
2022/03/24 02:59:08;;;;;;;36.78;24.38;;;;;;;3.79;67.89;100812.47;4954674;28;20040;-66
2022/03/24 03:01:34;;;;;;;37.53;23.42;;;;;;;3.77;68.30;100815.97;4953633;28;20042;-65
2022/03/24 03:04:00;;;;;;;37.15;22.23;;;;;;;3.74;68.22;100819.47;4954519;29;20031;-65
2022/03/24 03:06:26;;;;;;;58.10;22.90;;;;;;;3.73;68.34;100812.50;4954470;29;20048;-65
2022/03/24 03:08:52;;;;;;;37.70;23.08;;;;;;;3.70;68.57;100824.69;4954656;29;20039;-65
2022/03/24 03:11:22;;;;;;;40.70;23.83;;;;;;;3.68;68.58;100826.44;4953931;29;20039;-64
2022/03/24 03:13:48;;;;;;;31.25;21.70;;;;;;;3.63;68.90;100824.69;4954754;29;20031;-67
2022/03/24 03:16:13;;;;;;;33.63;22.60;;;;;;;3.64;68.83;100822.97;4954377;29;20034;-65
2022/03/24 03:18:41;;;;;;;40.35;23.50;;;;;;;3.60;68.87;100824.72;4937831;29;20035;-66
2022/03/24 03:21:08;;;;;;;30.58;21.55;;;;;;;3.59;68.76;100824.72;4950418;28;20046;-66
2022/03/24 03:23:37;;;;;;;38.90;23.27;;;;;;;3.56;68.79;100825.59;4954712;28;20035;-66
2022/03/24 03:26:02;;;;;;;39.20;24.90;;;;;;;3.54;69.12;100818.66;4955626;28;20039;-66
2022/03/24 03:28:28;;;;;;;36.20;23.88;;;;;;;3.51;69.37;100834.31;4954739;28;20118;-66
2022/03/24 03:30:53;;;;;;;38.15;20.55;;;;;;;3.48;69.44;100829.13;4954211;28;20085;-66
2022/03/24 03:33:18;;;;;;;35.20;22.80;;;;;;;3.49;69.04;100830.84;4954240;28;20125;-66
2022/03/24 03:35:44;;;;;;;30.73;21.30;;;;;;;3.41;69.63;100831.72;4954011;28;20039;-65
2022/03/24 03:38:10;;;;;;;37.03;21.13;;;;;;;3.38;69.87;100828.28;4937134;29;20563;-67
2022/03/24 03:40:36;;;;;;;43.28;25.10;;;;;;;3.35;70.04;100830.91;4936661;29;20130;-63
2022/03/24 03:43:02;;;;;;;41.13;23.85;;;;;;;3.34;69.74;100824.81;4953532;28;20118;-66
2022/03/24 03:45:27;;;;;;;34.15;21.27;;;;;;;3.31;70.18;100827.44;4953986;29;20031;-64
2022/03/24 03:47:52;;;;;;;42.70;23.77;;;;;;;3.34;70.05;100821.34;4953763;29;20084;-65
2022/03/24 03:50:18;;;;;;;35.85;22.48;;;;;;;3.35;69.98;100825.69;4953558;29;20047;-65
2022/03/24 03:52:43;;;;;;;37.58;22.35;;;;;;;3.33;69.70;100822.22;4953404;28;20035;-65
2022/03/24 03:55:10;;;;;;;36.97;24.08;;;;;;;3.32;70.26;100823.06;4954027;28;20063;-65
2022/03/24 03:57:35;;;;;;;41.28;25.30;;;;;;;3.26;70.02;100834.38;4953916;28;20046;-66
2022/03/24 04:00:52;;;;;;;38.75;22.73;;;;;;;3.23;70.21;100830.06;4953746;28;20047;-65
2022/03/24 04:02:46;;;;;;;37.90;22.48;;;;;;;3.26;70.34;100823.97;4953193;28;20032;-67
2022/03/24 04:05:12;;;;;;;41.28;24.05;;;;;;;3.31;69.63;100823.97;4953963;28;20038;-65
2022/03/24 04:07:37;;;;;;;33.50;22.38;;;;;;;3.28;69.94;100830.03;4954310;28;20031;-65
2022/03/24 04:10:02;;;;;;;34.30;21.27;;;;;;;3.35;69.39;100826.56;4954108;28;20070;-64
2022/03/24 04:12:29;;;;;;;40.15;23.25;;;;;;;3.35;69.47;100825.69;4953111;28;20043;-66
2022/03/24 04:14:54;;;;;;;35.88;23.13;;;;;;;3.30;69.64;100830.03;4953756;28;20518;-66
2022/03/24 04:17:19;;;;;;;41.03;25.52;;;;;;;3.30;69.61;100824.81;4953606;28;20059;-67
2022/03/24 04:19:45;;;;;;;38.08;22.75;;;;;;;3.28;69.56;100826.59;4952356;28;20127;-66
2022/03/24 04:22:10;;;;;;;41.13;24.17;;;;;;;3.28;69.30;100822.22;4952484;28;20101;-66
2022/03/24 04:24:35;;;;;;;36.17;22.77;;;;;;;3.26;69.43;100833.53;4953580;29;20130;-68
2022/03/24 04:27:01;;;;;;;36.80;22.80;;;;;;;3.26;69.50;100825.72;4953550;29;20492;-66
2022/03/24 04:29:26;;;;;;;36.40;22.23;;;;;;;3.27;69.40;100823.09;4953322;29;20035;-65
2022/03/24 04:31:52;;;;;;;41.50;23.33;;;;;;;3.28;68.83;100822.22;4952745;29;20031;-67
2022/03/24 04:34:17;;;;;;;39.05;21.45;;;;;;;3.30;69.15;100824.81;4953132;29;20385;-64
2022/03/24 04:36:43;;;;;;;33.47;20.30;;;;;;;3.29;69.20;100828.31;4953022;29;20174;-67
2022/03/24 04:39:08;;;;;;;36.92;20.85;;;;;;;3.35;68.74;100826.56;4953475;29;20081;-68
2022/03/24 04:41:34;;;;;;;36.20;20.83;;;;;;;3.34;68.73;100821.34;4952592;29;20166;-66
2022/03/24 04:43:59;;;;;;;37.13;21.67;;;;;;;3.29;68.66;100817.88;4952975;29;20396;-65
2022/03/24 04:46:25;;;;;;;40.00;25.65;;;;;;;3.26;69.25;100826.56;4952974;29;20042;-66
2022/03/24 04:48:50;;;;;;;31.13;21.48;;;;;;;3.22;69.64;100830.03;4952777;29;20031;-66
2022/03/24 04:51:17;;;;;;;40.35;25.40;;;;;;;3.19;69.46;100833.53;4952259;29;20041;-65
2022/03/24 04:53:42;;;;;;;37.72;24.45;;;;;;;3.16;69.67;100830.94;4952673;28;20117;-66
2022/03/24 04:56:08;;;;;;;46.72;23.15;;;;;;;3.22;69.56;100841.38;4953291;28;20043;-66
2022/03/24 04:58:34;;;;;;;34.85;22.25;;;;;;;3.25;69.26;100839.59;4952714;28;20070;-66
2022/03/24 05:01:00;;;;;;;35.95;21.90;;;;;;;3.24;69.44;100836.13;4952187;28;20722;-65
2022/03/24 05:03:25;;;;;;;38.13;22.55;;;;;;;3.21;69.04;100836.13;4951837;28;20049;-67
2022/03/24 05:05:50;;;;;;;37.45;22.30;;;;;;;3.19;69.01;100835.28;4952921;29;20058;-66
2022/03/24 05:08:16;;;;;;;41.58;24.60;;;;;;;3.12;69.56;100833.53;4952180;28;20115;-66
2022/03/24 05:10:41;;;;;;;35.38;22.15;;;;;;;3.12;69.52;100838.75;4953236;29;20118;-67
2022/03/24 05:13:06;;;;;;;42.25;24.05;;;;;;;3.14;68.98;100832.66;4952315;29;20035;-67
2022/03/24 05:15:32;;;;;;;35.72;23.73;;;;;;;3.18;69.52;100841.38;4952473;29;20039;-67
2022/03/24 05:17:57;;;;;;;35.58;23.63;;;;;;;3.16;69.55;100843.09;4952607;29;20031;-66
2022/03/24 05:20:23;;;;;;;33.35;22.17;;;;;;;3.14;69.75;100842.22;4951862;29;20503;-66
2022/03/24 05:22:48;;;;;;;39.28;25.48;;;;;;;3.15;69.49;100850.06;4951957;29;20031;-65
2022/03/24 05:25:14;;;;;;;37.08;25.42;;;;;;;3.13;69.66;100851.78;4952279;29;20039;-65
2022/03/24 05:27:39;;;;;;;43.83;28.75;;;;;;;3.11;70.01;100844.84;4952698;29;20043;-65
2022/03/24 05:30:05;;;;;;;37.95;24.77;;;;;;;3.08;69.40;100847.47;4952401;29;20067;-64
2022/03/24 05:32:31;;;;;;;45.17;26.45;;;;;;;3.04;69.57;100845.72;4951539;29;20046;-65
2022/03/24 05:34:56;;;;;;;41.60;25.95;;;;;;;2.99;70.08;100846.59;4951932;29;20508;-66
2022/03/24 05:37:22;;;;;;;40.25;25.92;;;;;;;2.95;70.08;100849.19;4952006;29;20036;-67
2022/03/24 05:39:47;;;;;;;43.13;25.98;;;;;;;2.89;70.32;100841.41;4951897;29;20083;-64
2022/03/24 05:42:12;;;;;;;34.03;21.50;;;;;;;2.88;70.06;100837.03;4950840;29;20408;-66
2022/03/24 05:44:38;;;;;;;42.63;25.42;;;;;;;2.90;70.37;100843.13;4952586;29;20035;-67
2022/03/24 05:47:04;;;;;;;41.63;26.08;;;;;;;2.93;70.12;100838.78;4952086;29;20035;-66
2022/03/24 05:49:29;;;;;;;41.20;24.45;;;;;;;2.94;70.18;100837.06;4952371;29;20047;-67
2022/03/24 05:51:55;;;;;;;40.08;24.15;;;;;;;2.96;70.25;100843.13;4952665;29;20117;-67
2022/03/24 05:54:20;;;;;;;39.58;25.50;;;;;;;2.96;70.25;100841.41;4955165;29;20103;-68
2022/03/24 05:56:46;;;;;;;45.22;28.45;;;;;;;2.99;69.87;100840.53;4958845;29;20050;-66
2022/03/24 05:59:12;;;;;;;36.25;24.50;;;;;;;2.99;70.02;100840.53;4957310;29;20031;-66
2022/03/24 06:01:42;;;;;;;35.97;23.38;;;;;;;3.05;69.87;100840.50;4954264;29;20044;-65
2022/03/24 06:04:08;;;;;;;40.63;23.85;;;;;;;3.13;69.75;100843.97;4954084;28;20042;-65
2022/03/24 06:06:34;;;;;;;34.22;21.08;;;;;;;3.20;69.57;100842.25;4917643;29;20455;-67
2022/03/24 06:09:03;;;;;;;37.85;23.60;;;;;;;3.27;69.04;100840.47;4933725;29;20031;-71
2022/03/24 06:11:29;;;;;;;36.00;22.90;;;;;;;3.30;69.38;100838.72;4933064;29;20044;-66
2022/03/24 06:13:55;;;;;;;37.08;23.98;;;;;;;3.36;69.00;100843.91;4932452;28;20035;-65
2022/03/24 06:16:21;;;;;;;43.67;27.88;;;;;;;3.41;68.80;100846.50;4932356;28;20043;-66
2022/03/24 06:18:47;;;;;;;41.55;24.80;;;;;;;3.46;68.75;100842.16;4931807;28;20062;-66
2022/03/24 06:21:13;;;;;;;32.30;21.00;;;;;;;3.52;68.58;100846.47;4931542;28;20439;-66
2022/03/24 06:23:38;;;;;;;42.60;21.35;;;;;;;3.61;68.16;100841.22;4933038;28;20408;-67
2022/03/24 06:26:04;;;;;;;43.47;27.17;;;;;;;3.71;67.84;100840.31;4932567;28;20038;-65
2022/03/24 06:28:29;;;;;;;45.67;24.63;;;;;;;3.83;67.21;100842.00;4933634;28;20042;-66
2022/03/24 06:30:55;;;;;;;40.85;25.60;;;;;;;3.97;66.69;100845.41;4933851;28;20595;-66
2022/03/24 06:33:21;;;;;;;46.58;27.50;;;;;;;4.15;66.12;100848.81;4934347;28;20047;-66
2022/03/24 06:35:48;;;;;;;40.60;24.17;;;;;;;4.33;65.80;100842.59;4934392;28;20411;-66
2022/03/24 06:38:16;;;;;;;43.83;24.00;;;;;;;4.49;65.16;100844.22;4934332;28;20036;-66
2022/03/24 06:40:41;;;;;;;37.00;23.33;;;;;;;4.69;64.96;100850.16;4932909;28;20048;-66
2022/03/24 06:43:07;;;;;;;43.53;24.80;;;;;;;4.91;64.34;100848.22;4932126;28;20078;-66
2022/03/24 06:45:34;;;;;;;45.60;26.70;;;;;;;5.18;64.06;100854.09;4932317;28;20047;-65
2022/03/24 06:48:00;;;;;;;36.15;22.67;;;;;;;5.48;62.96;100852.88;4932393;28;20090;-64
2022/03/24 06:50:26;;;;;;;43.13;28.23;;;;;;;5.73;61.87;100856.09;4946702;28;20040;-67
2022/03/24 06:52:52;;;;;;;37.65;24.20;;;;;;;5.97;60.51;100849.72;4931431;28;20049;-66
2022/03/24 06:55:18;;;;;;;33.88;23.77;;;;;;;6.21;60.48;100858.13;4932024;29;20063;-66
2022/03/24 06:57:43;;;;;;;39.78;25.88;;;;;;;6.41;60.18;100840.38;4932197;29;20043;-66
2022/03/24 07:00:13;;;;;;;40.97;26.17;;;;;;;6.61;58.82;100845.28;4932476;29;20130;-67
2022/03/24 07:02:40;;;;;;;35.22;24.75;;;;;;;6.82;58.56;100849.34;4932091;29;20467;-67
2022/03/24 07:05:07;;;;;;;37.78;24.92;;;;;;;7.06;58.35;100853.31;4931730;29;20043;-66
2022/03/24 07:07:33;;;;;;;39.67;25.15;;;;;;;7.29;56.86;100847.63;4931881;29;20052;-68
2022/03/24 07:09:58;;;;;;;36.63;24.48;;;;;;;7.59;56.97;100850.56;4931764;28;20441;-66
2022/03/24 07:12:24;;;;;;;38.88;26.67;;;;;;;7.82;55.25;100850.06;4931670;28;20628;-65
2022/03/24 07:14:49;;;;;;;44.60;24.65;;;;;;;8.00;55.02;100847.94;4931982;28;20039;-65
2022/03/24 07:17:15;;;;;;;36.60;25.90;;;;;;;8.22;54.51;100849.22;4931861;28;20115;-66
2022/03/24 07:19:41;;;;;;;38.45;26.88;;;;;;;8.56;52.99;100851.94;4931947;28;20048;-67
2022/03/24 07:22:07;;;;;;;36.70;24.92;;;;;;;8.83;52.81;100849.56;4945852;28;20036;-65
2022/03/24 07:24:32;;;;;;;39.30;24.38;;;;;;;9.15;52.38;100858.41;4931457;28;20384;-65
2022/03/24 07:26:58;;;;;;;37.53;24.13;;;;;;;9.40;51.70;100866.50;4931714;28;20062;-65
2022/03/24 07:29:24;;;;;;;41.80;26.23;;;;;;;9.68;51.19;100856.94;4932558;28;20114;-66
2022/03/24 07:31:50;;;;;;;31.63;22.98;;;;;;;10.06;50.90;100856.72;4934415;28;20039;-66
2022/03/24 07:34:16;;;;;;;31.77;23.13;;;;;;;10.59;49.32;100850.75;4936354;28;20059;-67
2022/03/24 07:36:42;;;;;;;32.88;24.25;;;;;;;10.95;48.38;100854.81;4937140;28;20032;-66
2022/03/24 07:39:08;;;;;;;31.40;22.15;;;;;;;11.17;47.55;100848.78;4955853;28;20098;-67
2022/03/24 07:41:34;;;;;;;32.63;22.58;;;;;;;11.45;47.34;100853.13;4954103;28;20340;-67
2022/03/24 07:43:59;;;;;;;32.13;24.17;;;;;;;11.99;46.42;100852.91;4953185;28;20474;-67
2022/03/24 07:46:25;;;;;;;35.63;23.20;;;;;;;12.61;45.68;100856.63;4955263;28;20129;-65
2022/03/24 07:48:50;;;;;;;38.28;24.75;;;;;;;13.24;44.03;100854.03;4955891;28;20050;-66
2022/03/24 07:51:17;;;;;;;33.67;23.58;;;;;;;13.66;43.21;100844.25;4953687;28;20139;-65
2022/03/24 07:53:48;;;;;;;36.40;27.02;;;;;;;14.02;41.50;100847.00;4954059;28;20089;-66
2022/03/24 07:56:17;;;;;;;35.05;26.27;;;;;;;14.65;40.48;100846.72;4953935;28;20090;-65
2022/03/24 07:58:43;;;;;;;31.83;24.13;;;;;;;15.10;39.90;100855.09;4954003;28;20035;-66
2022/03/24 08:01:11;;;;;;;35.58;22.00;;;;;;;15.36;40.10;100856.44;4953740;28;20039;-66
2022/03/24 08:03:37;;;;;;;32.28;25.35;;;;;;;15.78;37.97;100852.47;4953672;28;20818;-65
2022/03/24 08:06:02;;;;;;;33.28;25.70;;;;;;;16.18;38.00;100861.78;4953827;28;20049;-65
2022/03/24 08:08:28;;;;;;;31.77;23.35;;;;;;;16.56;37.74;100853.44;4953760;28;20032;-65
2022/03/24 08:10:54;;;;;;;32.88;23.10;;;;;;;17.12;36.29;100851.13;4953621;28;20114;-67
2022/03/24 08:13:21;;;;;;;32.35;22.55;;;;;;;17.59;35.63;100861.56;4953371;28;20301;-66
2022/03/24 08:15:47;;;;;;;34.78;25.08;;;;;;;17.81;34.65;100857.59;4953404;28;20032;-66
2022/03/24 08:18:14;;;;;;;34.00;21.73;;;;;;;18.15;35.06;100858.16;4953705;28;20035;-65
2022/03/24 08:20:42;;;;;;;33.35;22.50;;;;;;;18.46;34.67;100862.41;4953225;28;20039;-67
2022/03/24 08:23:09;;;;;;;46.35;27.45;;;;;;;18.92;33.34;100859.38;4953129;28;20039;-66
2022/03/24 08:25:35;;;;;;;42.78;24.35;;;;;;;19.31;32.44;100857.63;4953501;28;20379;-66
2022/03/24 08:28:00;;;;;;;44.13;28.63;;;;;;;19.83;31.05;100855.84;4953193;28;20039;-67
2022/03/24 08:30:26;;;;;;;49.10;29.83;;;;;;;20.16;30.21;100858.78;4952947;28;20050;-67
2022/03/24 08:32:52;;;;;;;40.00;28.95;;;;;;;20.48;29.53;100860.94;4953082;28;20054;-68
2022/03/24 08:35:17;;;;;;;39.88;30.30;;;;;;;20.71;27.51;100856.59;4952904;28;20102;-66
2022/03/24 08:37:43;;;;;;;46.08;30.88;;;;;;;21.11;26.33;100863.44;4953278;28;20035;-66
2022/03/24 08:40:10;;;;;;;71.75;31.45;;;;;;;21.56;27.97;100858.19;4953097;28;20035;-66
2022/03/24 08:42:37;;;;;;;67.32;29.52;;;;;;;22.03;26.52;100867.03;4951349;28;20050;-66
2022/03/24 08:45:04;;;;;;;41.47;29.90;;;;;;;22.39;25.29;100862.34;4952780;28;20051;-66
2022/03/24 08:47:30;;;;;;;39.78;29.08;;;;;;;22.67;24.18;100864.50;4953066;28;20131;-67
2022/03/24 08:49:55;;;;;;;48.90;33.05;;;;;;;22.70;23.25;100868.75;4953012;28;20470;-66
2022/03/24 08:52:25;;;;;;;39.53;28.92;;;;;;;22.79;22.41;100867.13;4952125;28;20036;-66
2022/03/24 08:54:51;;;;;;;42.42;32.03;;;;;;;23.07;21.97;100863.88;4952496;28;20444;-66
2022/03/24 08:57:16;;;;;;;38.65;29.27;;;;;;;23.28;21.87;100860.31;4952746;28;20058;-65
2022/03/24 08:59:42;;;;;;;41.15;30.95;;;;;;;23.35;21.66;100862.34;4953038;28;20039;-66
2022/03/24 09:02:08;;;;;;;43.15;33.78;;;;;;;23.44;21.33;100865.25;4952604;28;20483;-66
2022/03/24 09:04:33;;;;;;;39.15;31.70;;;;;;;23.61;21.48;100859.25;4953356;28;20488;-65
2022/03/24 09:06:59;;;;;;;48.95;34.08;;;;;;;23.87;20.99;100866.91;4952944;28;20035;-66
2022/03/24 09:09:24;;;;;;;38.60;31.10;;;;;;;23.75;20.02;100856.25;4953404;28;20046;-66
2022/03/24 09:11:50;;;;;;;42.80;34.92;;;;;;;23.38;19.76;100865.78;4952539;28;20126;-67
2022/03/24 09:14:16;;;;;;;44.00;31.67;;;;;;;23.65;19.81;100865.22;4952834;28;20038;-67
2022/03/24 09:16:42;;;;;;;38.78;30.75;;;;;;;23.75;19.48;100866.16;4952712;28;20118;-68
2022/03/24 09:19:07;;;;;;;41.55;33.42;;;;;;;23.70;19.57;100863.84;4952131;28;20548;-67
2022/03/24 09:21:33;;;;;;;46.33;34.58;;;;;;;23.81;19.64;100868.31;4951212;28;20051;-67
2022/03/24 09:23:58;;;;;;;75.18;38.17;;;;;;;23.96;20.46;100863.41;4952580;28;20027;-66
2022/03/24 09:26:24;;;;;;;38.92;31.20;;;;;;;24.12;20.29;100874.56;4952421;28;20050;-66
2022/03/24 09:28:51;;;;;;;44.53;34.88;;;;;;;24.04;19.54;100871.66;4935275;28;20045;-66
2022/03/24 09:31:17;;;;;;;42.65;33.70;;;;;;;23.43;20.73;100877.00;4934714;28;20114;-66
2022/03/24 09:33:43;;;;;;;46.38;34.80;;;;;;;23.30;20.97;100861.91;4952740;28;20038;-66
2022/03/24 09:36:08;;;;;;;62.88;35.40;;;;;;;23.44;21.38;100873.34;4936924;29;20036;-67
2022/03/24 09:38:33;;;;;;;56.53;35.65;;;;;;;24.06;20.91;100874.22;4932832;29;20395;-67
2022/03/24 09:40:59;;;;;;;53.67;33.97;;;;;;;24.50;20.25;100869.44;4932567;29;20036;-67
2022/03/24 09:43:26;;;;;;;46.97;32.50;;;;;;;24.73;19.71;100872.72;4932447;29;20571;-67
2022/03/24 09:45:52;;;;;;;37.45;32.63;;;;;;;24.84;19.22;100870.72;4932751;29;20043;-67
2022/03/24 09:48:18;;;;;;;42.15;34.20;;;;;;;24.37;19.40;100870.50;4933497;29;20043;-66
2022/03/24 09:50:44;;;;;;;53.13;30.10;;;;;;;24.70;18.94;100868.44;4933766;29;20098;-65
2022/03/24 09:53:11;;;;;;;39.75;31.17;;;;;;;25.01;18.53;100868.34;4938910;28;20031;-67
2022/03/24 09:55:37;;;;;;;52.10;31.52;;;;;;;25.18;18.95;100866.75;4955365;28;20484;-66
2022/03/24 09:58:04;;;;;;;62.90;33.78;;;;;;;25.85;18.37;100867.63;4955538;28;20046;-67
2022/03/24 10:00:30;;;;;;;42.38;30.25;;;;;;;26.15;17.93;100860.25;4954632;28;20518;-67
2022/03/24 10:03:18;;;;;;;57.97;31.48;;;;;;;26.06;17.53;100870.09;4952240;28;20035;-65
2022/03/24 10:06:00;;;;;;;51.65;32.53;;;;;;;25.64;18.31;100865.13;4952256;28;20403;-66
2022/03/24 10:08:26;;;;;;;72.43;34.15;;;;;;;25.81;18.10;100874.31;4952361;28;20118;-67
2022/03/24 10:10:57;;;;;;;64.05;34.75;;;;;;;25.89;18.00;100874.44;4951814;28;20034;-66
2022/03/24 10:13:42;;;;;;;38.95;31.90;;;;;;;25.78;17.59;100872.75;4951171;28;20121;-66
2022/03/24 10:16:08;;;;;;;38.80;31.50;;;;;;;25.99;17.02;100867.16;4951767;29;20094;-68
2022/03/24 10:18:33;;;;;;;43.00;27.73;;;;;;;26.22;17.44;100859.50;4952230;29;21869;-68
2022/03/24 10:21:05;;;;;;;34.58;27.63;;;;;;;26.25;17.15;100861.91;4934287;29;20039;-67
2022/03/24 10:23:34;;;;;;;36.45;28.05;;;;;;;25.80;17.13;100859.94;4951866;29;20142;-67
2022/03/24 10:26:03;;;;;;;43.47;31.08;;;;;;;25.82;17.66;100860.66;4934596;29;20486;-66
2022/03/24 10:28:29;;;;;;;41.50;30.42;;;;;;;25.90;17.14;100858.09;4951446;29;20043;-65
2022/03/24 10:30:58;;;;;;;39.85;28.90;;;;;;;25.90;17.55;100858.09;4951266;29;20035;-67
2022/03/24 10:33:36;;;;;;;43.55;27.15;;;;;;;25.92;16.94;100858.78;4951129;29;20110;-66
2022/03/24 10:36:23;;;;;;;34.55;26.40;;;;;;;26.07;17.44;100864.56;4933746;29;20633;-66
2022/03/24 10:38:52;;;;;;;40.97;28.42;;;;;;;26.25;17.22;100867.31;4951177;29;20078;-67
2022/03/24 10:41:22;;;;;;;34.65;28.63;;;;;;;25.96;17.26;100863.91;4933192;29;20059;-67
2022/03/24 10:43:50;;;;;;;77.03;32.42;;;;;;;26.05;17.85;100860.31;4950894;28;20448;-66
2022/03/24 10:46:23;;;;;;;64.90;31.73;;;;;;;25.60;18.01;100855.63;4951044;28;20038;-66
2022/03/24 10:48:50;;;;;;;47.13;32.70;;;;;;;24.99;17.98;100854.13;4951412;28;20043;-65
2022/03/24 10:51:26;;;;;;;41.72;30.48;;;;;;;23.78;17.70;100857.81;4950381;28;20038;-65
2022/03/24 10:54:02;;;;;;;44.90;30.88;;;;;;;22.58;18.57;100867.09;4951119;28;20035;-66
2022/03/24 10:56:33;;;;;;;42.38;29.67;;;;;;;22.25;19.45;100866.19;4951077;28;20130;-65
2022/03/24 10:59:03;;;;;;;41.22;28.70;;;;;;;22.03;19.64;100857.13;4950978;28;20542;-67
2022/03/24 11:01:31;;;;;;;36.03;26.67;;;;;;;21.59;20.05;100866.03;4950122;28;20485;-66
2022/03/24 11:03:56;;;;;;;41.30;31.17;;;;;;;21.16;20.20;100872.84;4950823;28;20066;-65
2022/03/24 11:06:27;;;;;;;34.88;28.20;;;;;;;20.47;20.79;100861.03;4953453;28;20043;-65
2022/03/24 11:08:59;;;;;;;40.47;27.88;;;;;;;20.49;21.58;100861.78;4955824;28;20034;-67
2022/03/24 11:11:25;;;;;;;76.88;33.67;;;;;;;20.52;22.00;100870.44;4955327;28;20440;-66
2022/03/24 11:13:59;;;;;;;32.47;23.60;;;;;;;20.62;21.43;100870.66;4956176;29;20114;-66